createdAt,value
2022-11-18T00:01:21.999Z,2.50
2022-11-18T00:03:51.082Z,2.85
2022-11-18T00:06:21.933Z,2.50
2022-11-18T00:08:50.278Z,2.53
2022-11-18T00:11:39.806Z,2.20
2022-11-18T00:14:19.679Z,2.30
2022-11-18T00:16:51.565Z,2.25
2022-11-18T00:19:21.658Z,2.08
2022-11-18T00:21:50.464Z,2.38
2022-11-18T00:24:18.556Z,2.50
2022-11-18T00:26:46.432Z,2.20
2022-11-18T00:29:15.188Z,2.58
2022-11-18T00:31:43.950Z,2.70
2022-11-18T00:34:13.879Z,2.10
2022-11-18T00:36:43.661Z,2.42
2022-11-18T00:39:13.065Z,2.50
2022-11-18T00:41:59.859Z,2.30
2022-11-18T00:44:28.187Z,2.30
2022-11-18T00:46:56.676Z,2.20
2022-11-18T00:49:24.807Z,2.50
2022-11-18T00:51:52.698Z,2.35
2022-11-18T00:54:21.018Z,2.40
2022-11-18T00:56:48.946Z,2.35
2022-11-18T00:59:17.144Z,2.47
2022-11-18T01:01:45.406Z,2.33
2022-11-18T01:04:13.329Z,2.33
2022-11-18T01:06:41.784Z,2.17
2022-11-18T01:09:09.585Z,2.30
2022-11-18T01:11:56.309Z,2.40
2022-11-18T01:14:25.730Z,2.30
2022-11-18T01:16:57.447Z,2.25
2022-11-18T01:19:26.422Z,2.50
2022-11-18T01:21:56.655Z,2.28
2022-11-18T01:24:24.553Z,2.40
2022-11-18T01:26:52.453Z,2.08
2022-11-18T01:29:20.433Z,2.15
2022-11-18T01:32:16.830Z,2.20
2022-11-18T01:34:36.681Z,2.15
2022-11-18T01:37:04.796Z,2.40
2022-11-18T01:39:32.887Z,2.63
2022-11-18T01:42:00.895Z,2.55
2022-11-18T01:44:56.357Z,2.30
2022-11-18T01:47:51.918Z,2.40
2022-11-18T01:50:22.221Z,2.40
2022-11-18T01:52:53.706Z,2.40
2022-11-18T01:55:26.087Z,2.42
2022-11-18T01:58:03.020Z,2.28
2022-11-18T02:00:31.034Z,2.45
2022-11-18T02:03:01.270Z,2.03
2022-11-18T02:05:30.882Z,2.40
2022-11-18T02:08:00.259Z,2.25
2022-11-18T02:10:28.268Z,2.28
2022-11-18T02:12:56.867Z,2.40
2022-11-18T02:15:44.147Z,2.28
2022-11-18T02:18:33.666Z,2.35
2022-11-18T02:21:21.748Z,2.05
2022-11-18T02:24:08.272Z,2.40
2022-11-18T02:27:00.353Z,2.40
2022-11-18T02:29:33.627Z,2.30
2022-11-18T02:32:12.350Z,2.40
2022-11-18T02:35:04.496Z,2.28
2022-11-18T02:37:50.747Z,2.30
2022-11-18T02:40:35.448Z,2.10
2022-11-18T02:43:19.412Z,1.83
2022-11-18T02:45:52.356Z,2.30
2022-11-18T02:48:24.171Z,2.27
2022-11-18T02:50:52.851Z,2.45
2022-11-18T02:53:22.250Z,2.40
2022-11-18T02:55:52.880Z,1.88
2022-11-18T02:58:22.601Z,2.30
2022-11-18T03:00:59.063Z,2.25
2022-11-18T03:03:35.462Z,2.30
2022-11-18T03:06:18.121Z,2.60
2022-11-18T03:09:00.877Z,2.40
2022-11-18T03:11:31.219Z,2.63
2022-11-18T03:14:22.621Z,2.50
2022-11-18T03:17:03.896Z,2.63
2022-11-18T03:19:49.789Z,2.30
2022-11-18T03:22:26.514Z,2.42
2022-11-18T03:25:12.090Z,2.50
2022-11-18T03:27:50.503Z,2.55
2022-11-18T03:30:22.329Z,2.53
2022-11-18T03:33:00.704Z,2.72
2022-11-18T03:35:33.194Z,2.45
2022-11-18T03:38:09.323Z,2.63
2022-11-18T03:40:39.892Z,2.50
2022-11-18T03:43:15.798Z,2.88
2022-11-18T03:45:52.692Z,2.75
2022-11-18T03:48:25.627Z,2.83
2022-11-18T03:51:18.432Z,2.87
2022-11-18T03:54:01.147Z,2.83
2022-11-18T03:56:37.870Z,2.85
2022-11-18T03:59:16.671Z,2.72
2022-11-18T04:02:00.101Z,2.80
2022-11-18T04:04:28.638Z,2.50
2022-11-18T04:07:17.441Z,2.53
2022-11-18T04:09:55.537Z,2.70
2022-11-18T04:12:25.945Z,2.58
2022-11-18T04:14:55.691Z,2.70
2022-11-18T04:17:28.254Z,2.78
2022-11-18T04:19:56.517Z,2.60
2022-11-18T04:22:24.466Z,2.60
2022-11-18T04:24:52.911Z,2.67
2022-11-18T04:27:20.910Z,2.83
2022-11-18T04:29:48.944Z,2.75
2022-11-18T04:32:16.919Z,2.78
2022-11-18T04:34:45.330Z,2.80
2022-11-18T04:37:13.474Z,2.50
2022-11-18T04:39:41.472Z,2.75
2022-11-18T04:42:09.603Z,2.60
2022-11-18T04:44:37.782Z,2.65
2022-11-18T04:47:06.911Z,2.67
2022-11-18T04:49:36.050Z,2.75
2022-11-18T04:52:04.948Z,2.40
2022-11-18T04:54:33.403Z,2.58
2022-11-18T04:57:01.589Z,2.33
2022-11-18T04:59:30.296Z,2.60
2022-11-18T05:01:59.597Z,2.50
2022-11-18T05:04:30.955Z,2.63
2022-11-18T05:07:00.954Z,2.80
2022-11-18T05:09:32.132Z,2.60
2022-11-18T05:12:19.594Z,2.45
2022-11-18T05:14:50.374Z,2.53
2022-11-18T05:17:19.502Z,2.50
2022-11-18T05:19:47.700Z,2.58
2022-11-18T05:22:16.076Z,2.88
2022-11-18T05:24:44.124Z,2.70
2022-11-18T05:27:12.720Z,2.92
2022-11-18T05:29:40.641Z,6.00
2022-11-18T05:32:08.812Z,14.00
2022-11-18T05:34:37.179Z,14.18
2022-11-18T05:37:05.094Z,18.77
2022-11-18T05:39:34.190Z,14.38
2022-11-18T05:42:21.711Z,10.38
2022-11-18T05:44:57.439Z,4.75
2022-11-18T05:47:25.978Z,3.40
2022-11-18T05:49:54.078Z,3.35
2022-11-18T05:52:22.108Z,3.70
2022-11-18T05:54:51.466Z,3.22
2022-11-18T05:57:19.440Z,3.58
2022-11-18T05:59:47.252Z,4.18
2022-11-18T06:02:22.285Z,4.28
2022-11-18T06:05:01.093Z,5.55
2022-11-18T06:07:41.466Z,7.88
2022-11-18T06:10:18.326Z,7.00
2022-11-18T06:12:50.861Z,4.90
2022-11-18T06:15:28.754Z,4.90
2022-11-18T06:18:01.820Z,4.93
2022-11-18T06:20:30.315Z,6.22
2022-11-18T06:22:59.053Z,6.70
2022-11-18T06:25:27.896Z,6.32
2022-11-18T06:27:59.426Z,7.07
2022-11-18T06:30:27.548Z,6.40
2022-11-18T06:32:55.577Z,5.90
2022-11-18T06:35:23.582Z,6.57
2022-11-18T06:37:51.874Z,6.40
2022-11-18T06:40:19.993Z,7.05
2022-11-18T06:43:06.996Z,6.40
2022-11-18T06:45:34.891Z,6.57
2022-11-18T06:48:04.391Z,7.00
2022-11-18T06:50:32.481Z,7.10
2022-11-18T06:53:01.736Z,6.45
2022-11-18T06:55:29.614Z,6.38
2022-11-18T06:57:58.015Z,6.68
2022-11-18T07:00:26.035Z,6.18
2022-11-18T07:02:54.355Z,6.70
2022-11-18T07:05:22.656Z,7.00
2022-11-18T07:07:50.718Z,7.05
2022-11-18T07:10:18.805Z,7.05
2022-11-18T07:12:46.840Z,6.57
2022-11-18T07:15:14.930Z,6.50
2022-11-18T07:17:42.900Z,6.45
2022-11-18T07:20:11.508Z,6.38
2022-11-18T07:22:39.639Z,6.43
2022-11-18T07:25:07.916Z,5.85
2022-11-18T07:27:35.898Z,6.55
2022-11-18T07:30:04.178Z,6.65
2022-11-18T07:32:34.168Z,6.15
2022-11-18T07:35:02.090Z,6.05
2022-11-18T07:37:29.954Z,6.78
2022-11-18T07:39:59.985Z,6.55
2022-11-18T07:42:27.935Z,6.20
2022-11-18T07:44:55.762Z,5.85
2022-11-18T07:47:23.529Z,5.90
2022-11-18T07:49:51.477Z,6.28
2022-11-18T07:52:19.417Z,5.50
2022-11-18T07:54:47.316Z,5.32
2022-11-18T07:57:15.201Z,5.28
2022-11-18T07:59:43.078Z,5.57
2022-11-18T08:02:13.880Z,5.40
2022-11-18T08:04:41.774Z,5.50
2022-11-18T08:07:12.520Z,5.35
2022-11-18T08:09:40.455Z,5.28
2022-11-18T08:12:08.446Z,5.18
2022-11-18T08:14:36.629Z,5.00
2022-11-18T08:17:04.794Z,4.80
2022-11-18T08:19:35.200Z,5.25
2022-11-18T08:22:03.221Z,4.70
2022-11-18T08:24:31.131Z,5.00
2022-11-18T08:26:59.374Z,4.70
2022-11-18T08:29:28.528Z,4.75
2022-11-18T08:31:56.912Z,4.57
2022-11-18T08:34:26.477Z,4.60
2022-11-18T08:36:54.398Z,4.60
2022-11-18T08:39:22.596Z,4.45
2022-11-18T08:41:50.696Z,4.38
2022-11-18T08:44:18.699Z,4.38
2022-11-18T08:46:46.744Z,4.05
2022-11-18T08:49:14.758Z,4.00
2022-11-18T08:51:42.896Z,4.30
2022-11-18T08:54:10.814Z,4.05
2022-11-18T08:56:39.395Z,3.63
2022-11-18T08:59:07.716Z,4.40
2022-11-18T09:01:39.025Z,4.35
2022-11-18T09:04:07.135Z,3.58
2022-11-18T09:06:36.089Z,3.70
2022-11-18T09:09:18.511Z,4.05
2022-11-18T09:11:46.553Z,3.65
2022-11-18T09:17:02.833Z,3.97
2022-11-18T09:19:47.994Z,3.60
2022-11-18T09:22:16.184Z,3.63
2022-11-18T09:24:45.201Z,3.80
2022-11-18T09:27:16.938Z,3.17
2022-11-18T09:30:02.135Z,3.53
2022-11-18T09:32:30.273Z,3.60
2022-11-18T09:34:58.315Z,3.65
2022-11-18T09:37:26.412Z,3.60
2022-11-18T09:39:54.616Z,3.63
2022-11-18T09:42:37.888Z,3.40
2022-11-18T09:45:15.304Z,3.63
2022-11-18T09:47:45.895Z,3.40
2022-11-18T09:53:20.456Z,3.38
2022-11-18T09:55:50.732Z,3.20
2022-11-18T09:58:35.141Z,3.13
2022-11-18T10:01:10.003Z,3.35
2022-11-18T10:03:39.346Z,3.10
2022-11-18T10:06:10.653Z,3.15
2022-11-18T10:08:58.372Z,3.60
2022-11-18T10:11:40.135Z,3.03
2022-11-18T10:14:38.340Z,3.10
2022-11-18T10:17:51.620Z,3.13
2022-11-18T10:20:43.869Z,2.83
2022-11-18T10:23:29.938Z,3.05
2022-11-18T10:25:58.773Z,3.25
2022-11-18T10:28:32.354Z,3.40
2022-11-18T10:31:09.254Z,3.15
2022-11-18T10:33:38.344Z,3.30
2022-11-18T10:36:26.334Z,3.10
2022-11-18T10:39:07.963Z,3.30
2022-11-18T10:41:50.048Z,3.10
2022-11-18T10:44:31.985Z,2.97
2022-11-18T10:47:26.506Z,3.25
2022-11-18T10:52:25.235Z,3.10
2022-11-18T10:55:14.705Z,3.08
2022-11-18T10:57:43.776Z,2.70
2022-11-18T11:00:39.572Z,2.63
2022-11-18T11:03:24.078Z,2.92
2022-11-18T11:06:30.606Z,2.88
2022-11-18T11:09:08.524Z,2.80
2022-11-18T11:11:58.623Z,2.78
2022-11-18T11:14:35.889Z,2.83
2022-11-18T11:17:06.906Z,2.42
2022-11-18T11:20:04.559Z,2.78
2022-11-18T11:22:33.606Z,2.92
2022-11-18T11:25:02.141Z,2.60
2022-11-18T11:30:43.598Z,2.85
2022-11-18T11:33:45.573Z,2.78
2022-11-18T11:36:50.891Z,2.80
2022-11-18T11:39:47.340Z,2.60
2022-11-18T11:42:22.740Z,2.50
2022-11-18T11:45:23.588Z,2.50
2022-11-18T11:48:07.011Z,2.50
2022-11-18T11:51:03.262Z,2.63
2022-11-18T11:54:01.910Z,2.95
2022-11-18T11:57:02.199Z,2.70
2022-11-18T12:00:10.049Z,2.70
2022-11-18T12:03:10.167Z,2.45
2022-11-18T12:05:40.786Z,2.92
2022-11-18T12:08:24.625Z,2.30
2022-11-18T12:11:17.485Z,2.70
2022-11-18T12:13:48.195Z,2.83
2022-11-18T12:16:38.186Z,2.50
2022-11-18T12:19:12.618Z,2.40
2022-11-18T12:21:46.181Z,2.30
2022-11-18T12:24:33.448Z,2.22
2022-11-18T12:27:04.906Z,2.30
2022-11-18T12:29:35.831Z,2.22
2022-11-18T12:32:14.662Z,2.35
2022-11-18T12:34:44.891Z,2.38
2022-11-18T12:37:24.794Z,2.10
2022-11-18T12:39:55.825Z,2.17
2022-11-18T12:43:02.084Z,2.00
2022-11-18T12:45:42.640Z,2.30
2022-11-18T12:48:32.684Z,2.20
2022-11-18T12:51:19.233Z,2.30
2022-11-18T12:53:49.698Z,2.40
2022-11-18T12:56:30.310Z,2.05
2022-11-18T12:59:00.577Z,1.90
2022-11-18T13:01:31.004Z,2.03
2022-11-18T13:04:15.891Z,2.00
2022-11-18T13:06:45.095Z,2.20
2022-11-18T13:09:21.951Z,2.25
2022-11-18T13:12:01.446Z,2.00
2022-11-18T13:15:14.250Z,1.88
2022-11-18T13:17:52.622Z,1.80
2022-11-18T13:20:36.378Z,1.65
2022-11-18T13:23:28.852Z,1.70
2022-11-18T13:26:05.821Z,1.60
2022-11-18T13:28:39.372Z,1.77
2022-11-18T13:31:14.793Z,1.98
2022-11-18T13:33:42.933Z,1.70
2022-11-18T13:36:18.343Z,1.80
2022-11-18T13:39:04.045Z,1.70
2022-11-18T13:41:34.208Z,1.70
2022-11-18T13:44:25.006Z,2.00
2022-11-18T13:47:00.295Z,1.85
2022-11-18T13:49:50.327Z,2.20
2022-11-18T13:52:26.067Z,2.33
2022-11-18T13:54:56.146Z,2.38
2022-11-18T13:57:26.655Z,2.58
2022-11-18T13:59:55.584Z,2.30
2022-11-18T14:02:24.271Z,2.10
2022-11-18T14:04:58.666Z,1.73
2022-11-18T14:07:31.515Z,2.00
2022-11-18T14:10:07.277Z,1.80
2022-11-18T14:12:36.565Z,1.95
2022-11-18T14:15:42.170Z,2.05
2022-11-18T14:18:28.854Z,1.80
2022-11-18T14:20:57.063Z,1.45
2022-11-18T14:23:44.566Z,1.65
2022-11-18T14:26:12.638Z,1.83
2022-11-18T14:28:40.853Z,1.73
2022-11-18T14:31:28.215Z,1.67
2022-11-18T14:34:21.155Z,1.90
2022-11-18T14:36:51.174Z,1.58
2022-11-18T14:39:32.174Z,1.25
2022-11-18T14:42:00.906Z,1.33
2022-11-18T14:44:30.023Z,1.70
2022-11-18T14:46:59.212Z,1.50
2022-11-18T14:49:31.029Z,1.90
2022-11-18T14:52:02.697Z,1.55
2022-11-18T14:54:31.626Z,1.70
2022-11-18T14:57:04.908Z,1.38
2022-11-18T14:59:33.187Z,1.33
2022-11-18T15:02:01.296Z,1.33
2022-11-18T15:04:30.830Z,1.20
2022-11-18T15:06:58.982Z,1.60
2022-11-18T15:09:27.010Z,1.33
2022-11-18T15:11:55.016Z,1.40
2022-11-18T15:14:23.109Z,1.27
2022-11-18T15:16:51.323Z,1.60
2022-11-18T15:19:19.291Z,1.00
2022-11-18T15:21:47.310Z,1.60
2022-11-18T15:24:15.834Z,1.20
2022-11-18T15:26:46.701Z,1.33
2022-11-18T15:29:19.622Z,1.50
2022-11-18T15:31:48.867Z,1.30
2022-11-18T15:34:20.900Z,1.35
2022-11-18T15:36:49.564Z,1.17
2022-11-18T15:39:17.623Z,1.13
2022-11-18T15:41:45.819Z,1.10
2022-11-18T15:44:13.920Z,1.30
2022-11-18T15:46:42.237Z,1.30
2022-11-18T15:49:14.774Z,1.00
2022-11-18T15:51:43.011Z,0.93
2022-11-18T15:54:11.618Z,1.13
2022-11-18T15:56:40.099Z,0.80
2022-11-18T15:59:13.380Z,1.08
2022-11-18T16:01:50.246Z,1.10
2022-11-18T16:04:19.483Z,1.10
2022-11-18T16:06:48.047Z,1.02
2022-11-18T16:09:17.409Z,1.13
2022-11-18T16:12:04.189Z,1.00
2022-11-18T16:14:32.330Z,1.00
2022-11-18T16:17:00.392Z,0.95
2022-11-18T16:19:31.610Z,1.20
2022-11-18T16:22:00.187Z,0.90
2022-11-18T16:24:29.950Z,1.38
2022-11-18T16:26:58.341Z,0.80
2022-11-18T16:29:26.565Z,0.88
2022-11-18T16:31:54.992Z,1.05
2022-11-18T16:34:28.045Z,0.88
2022-11-18T16:36:58.285Z,0.90
2022-11-18T16:39:29.223Z,0.82
2022-11-18T16:42:06.914Z,0.77
2022-11-18T16:44:36.928Z,1.10
2022-11-18T16:47:12.263Z,1.02
2022-11-18T16:49:43.354Z,0.80
2022-11-18T16:52:11.350Z,0.60
2022-11-18T16:54:44.823Z,0.82
2022-11-18T16:57:14.885Z,1.08
2022-11-18T16:59:43.025Z,1.00
2022-11-18T17:02:14.107Z,0.80
2022-11-18T17:04:42.827Z,0.95
2022-11-18T17:07:10.816Z,0.68
2022-11-18T17:09:39.146Z,0.75
2022-11-18T17:12:07.454Z,0.77
2022-11-18T17:14:38.327Z,0.95
2022-11-18T17:17:07.042Z,0.52
2022-11-18T17:19:35.055Z,0.80
2022-11-18T17:22:03.065Z,0.63
2022-11-18T17:24:31.153Z,0.95
2022-11-18T17:26:59.298Z,0.82
2022-11-18T17:29:27.268Z,1.08
2022-11-18T17:31:55.652Z,0.63
2022-11-18T17:34:23.943Z,0.98
2022-11-18T17:36:51.976Z,0.73
2022-11-18T17:39:20.939Z,1.17
2022-11-18T17:42:07.392Z,0.90
2022-11-18T17:44:35.611Z,0.70
2022-11-18T17:47:03.766Z,0.73
2022-11-18T17:49:31.675Z,0.75
2022-11-18T17:51:59.704Z,0.80
2022-11-18T17:54:27.772Z,1.20
2022-11-18T17:56:56.017Z,0.80
2022-11-18T17:59:24.194Z,0.90
2022-11-18T18:01:58.601Z,1.10
2022-11-18T18:04:27.788Z,1.00
2022-11-18T18:06:55.823Z,0.77
2022-11-18T18:09:30.930Z,1.13
2022-11-18T18:12:01.008Z,1.00
2022-11-18T18:14:29.017Z,0.77
2022-11-18T18:16:56.993Z,0.80
2022-11-18T18:19:24.961Z,0.70
2022-11-18T18:21:53.680Z,0.90
2022-11-18T18:24:22.385Z,0.77
2022-11-18T18:26:51.122Z,0.82
2022-11-18T18:29:19.308Z,0.80
2022-11-18T18:31:47.541Z,1.27
2022-11-18T18:34:15.768Z,0.90
2022-11-18T18:36:44.011Z,0.68
2022-11-18T18:39:12.247Z,0.98
2022-11-18T18:41:40.073Z,1.00
2022-11-18T18:44:08.494Z,0.82
2022-11-18T18:46:39.761Z,0.80
2022-11-18T18:49:08.825Z,0.75
2022-11-18T18:51:44.538Z,0.88
2022-11-18T18:54:14.656Z,0.75
2022-11-18T18:56:43.352Z,0.65
2022-11-18T18:59:11.984Z,0.55
2022-11-18T19:01:40.540Z,0.98
2022-11-18T19:04:13.253Z,0.73
2022-11-18T19:07:00.532Z,0.80
2022-11-18T19:09:29.513Z,0.95
2022-11-18T19:12:16.198Z,0.60
2022-11-18T19:14:44.379Z,0.77
2022-11-18T19:17:13.094Z,0.77
2022-11-18T19:20:01.047Z,0.95
2022-11-18T19:22:31.763Z,0.68
2022-11-18T19:25:00.783Z,0.95
2022-11-18T19:27:29.604Z,0.50
2022-11-18T19:29:57.912Z,0.73
2022-11-18T19:32:26.076Z,0.77
2022-11-18T19:34:54.073Z,1.00
2022-11-18T19:37:22.182Z,0.77
2022-11-18T19:39:50.157Z,0.75
2022-11-18T19:42:18.312Z,0.80
2022-11-18T19:44:46.507Z,0.95
2022-11-18T19:47:14.635Z,0.60
2022-11-18T19:49:42.787Z,0.90
2022-11-18T19:52:10.764Z,0.77
2022-11-18T19:54:40.568Z,0.90
2022-11-18T19:57:08.701Z,0.65
2022-11-18T19:59:36.787Z,1.02
2022-11-18T20:02:04.725Z,0.85
2022-11-18T20:04:32.908Z,1.17
2022-11-18T20:07:01.058Z,0.88
2022-11-18T20:09:29.293Z,0.88
2022-11-18T20:11:57.593Z,1.00
2022-11-18T20:14:25.680Z,1.00
2022-11-18T20:16:53.661Z,0.88
2022-11-18T20:19:21.699Z,0.80
2022-11-18T20:21:49.850Z,0.93
2022-11-18T20:24:19.214Z,0.90
2022-11-18T20:26:47.663Z,1.15
2022-11-18T20:29:15.544Z,0.80
2022-11-18T20:31:43.844Z,1.00
2022-11-18T20:34:14.581Z,0.88
2022-11-18T20:36:43.148Z,0.98
2022-11-18T20:39:16.108Z,1.20
2022-11-18T20:42:10.960Z,0.80
2022-11-18T20:44:39.336Z,1.00
2022-11-18T20:47:07.197Z,1.00
2022-11-18T20:49:35.163Z,1.00
2022-11-18T20:52:03.147Z,0.68
2022-11-18T20:54:31.105Z,0.90
2022-11-18T20:56:59.265Z,0.77
2022-11-18T20:59:27.548Z,0.95
2022-11-18T21:01:55.565Z,0.68
2022-11-18T21:04:23.668Z,0.85
2022-11-18T21:06:57.552Z,1.20
2022-11-18T21:09:25.571Z,0.90
2022-11-18T21:11:53.570Z,0.93
2022-11-18T21:14:24.560Z,0.85
2022-11-18T21:17:00.732Z,0.85
2022-11-18T21:19:29.927Z,1.02
2022-11-18T21:21:57.878Z,0.70
2022-11-18T21:24:34.386Z,1.08
2022-11-18T21:27:04.365Z,0.70
2022-11-18T21:29:33.425Z,1.30
2022-11-18T21:32:01.923Z,0.70
2022-11-18T21:34:30.745Z,0.68
2022-11-18T21:36:58.883Z,0.70
2022-11-18T21:39:27.447Z,0.90
2022-11-18T21:41:57.054Z,0.80
2022-11-18T21:44:28.534Z,1.00
2022-11-18T21:46:57.729Z,0.98
2022-11-18T21:49:25.712Z,1.05
2022-11-18T21:51:53.860Z,0.75
2022-11-18T21:54:22.335Z,1.00
2022-11-18T21:56:50.481Z,0.88
2022-11-18T21:59:18.843Z,0.93
2022-11-18T22:01:47.129Z,1.00
2022-11-18T22:04:35.092Z,0.73
2022-11-18T22:07:03.214Z,0.63
2022-11-18T22:09:36.152Z,0.90
2022-11-18T22:12:06.916Z,1.00
2022-11-18T22:14:36.177Z,0.50
2022-11-18T22:17:04.956Z,0.80
2022-11-18T22:19:32.859Z,0.88
2022-11-18T22:22:01.085Z,0.75
2022-11-18T22:24:29.308Z,0.80
2022-11-18T22:26:57.839Z,0.88
2022-11-18T22:29:26.327Z,0.90
2022-11-18T22:31:54.337Z,0.82
2022-11-18T22:34:22.469Z,0.77
2022-11-18T22:36:50.524Z,0.85
2022-11-18T22:39:18.932Z,1.00
2022-11-18T22:42:05.885Z,1.10
2022-11-18T22:44:33.678Z,0.80
2022-11-18T22:47:01.674Z,0.70
2022-11-18T22:49:29.626Z,0.90
2022-11-18T22:51:57.390Z,0.80
2022-11-18T22:54:40.827Z,0.73
2022-11-18T22:57:09.270Z,0.77
2022-11-18T22:59:37.233Z,1.00
2022-11-18T23:02:05.697Z,0.90
2022-11-18T23:04:33.914Z,0.68
2022-11-18T23:07:02.145Z,0.73
2022-11-18T23:09:30.329Z,0.70
2022-11-18T23:12:16.676Z,0.90
2022-11-18T23:14:44.672Z,1.00
2022-11-18T23:17:12.570Z,0.80
2022-11-18T23:19:43.767Z,0.98
2022-11-18T23:22:12.191Z,0.70
2022-11-18T23:24:40.429Z,0.70
2022-11-18T23:27:08.358Z,1.00
2022-11-18T23:29:36.260Z,0.77
2022-11-18T23:32:04.613Z,0.80
2022-11-18T23:34:32.535Z,0.52
2022-11-18T23:37:00.382Z,0.80
2022-11-18T23:39:28.304Z,0.80
2022-11-18T23:41:55.988Z,0.80
2022-11-18T23:44:43.763Z,1.25
2022-11-18T23:47:11.902Z,0.60
2022-11-18T23:49:39.842Z,0.77
2022-11-18T23:52:07.725Z,1.00
2022-11-18T23:54:35.564Z,0.98
2022-11-18T23:57:05.355Z,0.73
2022-11-18T23:59:33.581Z,0.80
